Terminal Aerodrome Forecast
Issued by NWS

Home | Current Version | Previous Version | Text Only | Print | Product List | Glossary On
Versions: 1 2 3 4 5 6 7 8 9 10 11 12 13 14
000
FTUS44 KEPZ 202320
TAFTCS
TAF
KTCS 202320Z 2100/2124 05007KT P6SM VCSH SCT030 BKN060
     FM210600 33005KT P6SM SCT020 BKN050
      TEMPO 2110/2114 2SM BR BKN010
     FM211500 21007KT P6SM BKN050=

USA.gov is the U.S. government's official web portal to all federal, state and local government web resources and services.